Time;durP1;ratioP1;P1;durP2;ratioP2;P2;SDS_P1;SDS_P2;PMS_P1;PMS_P2;Temp;Humidity;BMP_temperature;BMP_pressure;BME280_temperature;BME280_humidity;BME280_pressure;Samples;Min_cycle;Max_cycle;Signal;HPM_P1;HPM_P2
2022/10/07 00:00:45;;;;;;;5.87;4.70;;;;;21.00;101696.00;;;;2052493;28;20222;-65
2022/10/07 00:01:45;;;;;;;5.18;4.65;;;;;20.90;101699.00;;;;2051596;28;20338;-65
2022/10/07 00:02:45;;;;;;;8.40;5.17;;;;;20.90;101695.00;;;;2052044;28;20279;-65
2022/10/07 00:03:46;;;;;;;6.63;4.43;;;;;20.90;101692.00;;;;2053188;28;20212;-65
2022/10/07 00:04:46;;;;;;;7.70;4.90;;;;;20.90;101666.00;;;;2053165;28;20216;-65
2022/10/07 00:05:46;;;;;;;6.00;4.90;;;;;20.90;101685.00;;;;2053039;28;20207;-65
2022/10/07 00:06:47;;;;;;;6.53;4.27;;;;;20.80;101690.00;;;;2052692;28;20316;-65
2022/10/07 00:07:47;;;;;;;5.10;4.10;;;;;20.90;101688.00;;;;2052361;28;20228;-65
2022/10/07 00:08:49;;;;;;;6.87;4.80;;;;;20.80;101686.00;;;;2051841;28;20223;-65
2022/10/07 00:09:49;;;;;;;6.50;4.70;;;;;20.80;101682.00;;;;2051572;28;20343;-64
2022/10/07 00:10:49;;;;;;;8.30;4.10;;;;;20.80;101678.00;;;;2052093;28;20228;-64
2022/10/07 00:11:50;;;;;;;7.40;4.90;;;;;20.80;101694.00;;;;2052936;28;20246;-65
2022/10/07 00:12:50;;;;;;;7.10;4.00;;;;;20.80;101686.00;;;;2053076;28;20217;-65
2022/10/07 00:13:52;;;;;;;4.37;3.50;;;;;20.80;101696.00;;;;2052835;28;20242;-65
2022/10/07 00:14:53;;;;;;;6.80;4.28;;;;;20.30;101682.00;;;;2051512;28;20237;-65
2022/10/07 00:15:53;;;;;;;5.90;3.77;;;;;20.80;101690.00;;;;2051930;28;20207;-66
2022/10/07 00:16:53;;;;;;;4.53;3.70;;;;;20.30;101692.00;;;;2052256;28;20319;-67
2022/10/07 00:17:54;;;;;;;5.40;4.03;;;;;20.80;101683.00;;;;2052395;28;20208;-66
2022/10/07 00:18:56;;;;;;;7.50;4.40;;;;;20.70;101688.00;;;;2051675;28;20208;-66
2022/10/07 00:19:56;;;;;;;5.75;3.55;;;;;20.70;101689.00;;;;2052106;28;20685;-66
2022/10/07 00:21:01;;;;;;;5.00;4.07;;;;;20.80;101686.00;;;;2052372;28;20243;-66
2022/10/07 00:22:01;;;;;;;6.18;4.00;;;;;20.70;101680.00;;;;2052779;28;20223;-64
2022/10/07 00:23:01;;;;;;;4.33;3.37;;;;;20.70;101685.00;;;;2050972;28;20215;-64
2022/10/07 00:24:03;;;;;;;5.10;3.67;;;;;20.70;101677.00;;;;2051590;28;20215;-63
2022/10/07 00:25:03;;;;;;;5.22;3.60;;;;;20.80;101683.00;;;;2052013;28;20371;-64
2022/10/07 00:26:05;;;;;;;6.27;3.90;;;;;20.70;101638.00;;;;2052248;28;20395;-64
2022/10/07 00:27:06;;;;;;;5.15;3.88;;;;;20.70;101672.00;;;;2055809;28;20251;-66
2022/10/07 00:28:06;;;;;;;5.20;3.53;;;;;20.70;101674.00;;;;2055852;28;20223;-67
2022/10/07 00:29:06;;;;;;;4.67;3.43;;;;;20.70;101680.00;;;;2052469;28;20325;-66
2022/10/07 00:30:07;;;;;;;5.13;3.33;;;;;20.70;101667.00;;;;2048921;28;20247;-66
2022/10/07 00:31:09;;;;;;;4.15;3.55;;;;;20.70;101670.00;;;;2052394;28;20212;-65
2022/10/07 00:32:10;;;;;;;3.88;3.40;;;;;20.70;101670.00;;;;2051645;28;20213;-66
2022/10/07 00:33:10;;;;;;;5.07;3.20;;;;;20.60;101673.00;;;;2051897;28;20232;-66
2022/10/07 00:34:11;;;;;;;4.00;3.40;;;;;20.60;101690.00;;;;2052545;28;20695;-65
2022/10/07 00:35:11;;;;;;;4.93;3.37;;;;;20.60;101670.00;;;;2051816;28;20556;-66
2022/10/07 00:36:17;;;;;;;5.40;3.23;;;;;20.60;101665.00;;;;2050728;28;20680;-65
2022/10/07 00:37:17;;;;;;;3.42;2.75;;;;;20.60;101660.00;;;;2055461;28;20215;-65
2022/10/07 00:38:18;;;;;;;4.30;2.83;;;;;20.60;101670.00;;;;2054455;28;20206;-66
2022/10/07 00:39:18;;;;;;;6.80;3.23;;;;;20.60;101670.00;;;;2054390;28;20204;-65
2022/10/07 00:40:18;;;;;;;4.57;3.03;;;;;20.60;101623.00;;;;2053946;28;20212;-66
2022/10/07 00:41:20;;;;;;;3.73;3.07;;;;;20.60;101670.00;;;;2052709;28;20294;-66
2022/10/07 00:42:21;;;;;;;4.38;3.40;;;;;20.70;101667.00;;;;2052215;28;20229;-66
2022/10/07 00:43:28;;;;;;;5.73;3.37;;;;;20.60;101661.00;;;;2052144;28;20208;-65
2022/10/07 00:44:28;;;;;;;4.32;3.00;;;;;20.60;101658.00;;;;2051789;28;20294;-66
2022/10/07 00:45:28;;;;;;;3.53;3.07;;;;;20.60;101658.00;;;;2054938;28;20208;-66
2022/10/07 00:46:36;;;;;;;5.10;3.30;;;;;20.60;101606.00;;;;2053304;28;20232;-66
2022/10/07 00:47:36;;;;;;;4.35;3.00;;;;;20.60;101649.00;;;;2045738;29;20222;-66
2022/10/07 00:48:38;;;;;;;4.40;3.03;;;;;20.60;101654.00;;;;2045275;29;20284;-65
2022/10/07 00:50:00;;;;;;;5.55;3.35;;;;;20.60;101658.00;;;;2055355;28;20722;-66
2022/10/07 00:51:00;;;;;;;4.18;3.20;;;;;20.60;101653.00;;;;2048656;28;20622;-65
2022/10/07 00:52:00;;;;;;;5.50;3.03;;;;;20.60;101505.00;;;;2051822;28;20224;-65
2022/10/07 00:53:01;;;;;;;4.20;2.77;;;;;20.50;101614.00;;;;2052475;28;20238;-65
2022/10/07 00:54:02;;;;;;;4.63;2.97;;;;;20.50;101638.00;;;;2044014;28;20231;-66
2022/10/07 00:55:05;;;;;;;4.43;3.00;;;;;20.50;101578.00;;;;2043371;29;20660;-65
2022/10/07 00:56:06;;;;;;;4.50;3.10;;;;;20.50;101655.00;;;;2043664;29;20228;-65
2022/10/07 00:57:06;;;;;;;4.70;3.27;;;;;20.50;101601.00;;;;2050565;28;20216;-66
2022/10/07 00:58:08;;;;;;;5.27;2.57;;;;;20.50;101653.00;;;;2043284;29;20692;-65
2022/10/07 00:59:08;;;;;;;3.40;2.67;;;;;20.50;101643.00;;;;2047623;28;20680;-66
2022/10/07 01:00:09;;;;;;;3.73;2.70;;;;;20.50;101631.00;;;;2047652;28;20222;-66
2022/10/07 01:01:10;;;;;;;4.30;2.97;;;;;20.50;101643.00;;;;2052009;28;20790;-65
2022/10/07 01:02:11;;;;;;;4.45;2.75;;;;;20.50;101643.00;;;;2052584;28;20479;-66
2022/10/07 01:03:11;;;;;;;4.37;3.00;;;;;20.50;101641.00;;;;2052193;28;20869;-65
2022/10/07 01:04:12;;;;;;;4.00;2.47;;;;;20.50;101634.00;;;;2051747;28;20806;-66
2022/10/07 01:05:13;;;;;;;5.25;2.70;;;;;20.50;101636.00;;;;2052052;28;20326;-66
2022/10/07 01:06:13;;;;;;;4.60;2.87;;;;;20.50;101642.00;;;;2051536;28;20601;-65
2022/10/07 01:07:19;;;;;;;3.30;2.60;;;;;20.50;101557.00;;;;2051666;28;20261;-65
2022/10/07 01:08:19;;;;;;;3.47;2.70;;;;;20.50;101636.00;;;;2051573;28;20340;-65
2022/10/07 01:09:20;;;;;;;6.13;3.23;;;;;20.50;101631.00;;;;2051189;28;20216;-65
2022/10/07 01:10:21;;;;;;;9.30;2.95;;;;;20.50;101632.00;;;;2052047;28;20790;-65
2022/10/07 01:11:49;;;;;;;5.75;2.78;;;;;20.50;101646.00;;;;2044204;28;20577;-65
2022/10/07 01:12:59;;;;;;;3.83;2.70;;;;;20.50;101631.00;;;;2049343;28;20314;-66
2022/10/07 01:14:02;;;;;;;3.53;2.70;;;;;20.50;101624.00;;;;2052502;28;20970;-65
2022/10/07 01:15:05;;;;;;;3.90;2.60;;;;;20.40;101548.00;;;;2052477;28;20315;-65
2022/10/07 01:16:24;;;;;;;5.28;2.40;;;;;20.40;101644.00;;;;2051702;28;20762;-65
2022/10/07 01:17:52;;;;;;;2.75;2.47;;;;;20.50;101619.00;;;;2050891;28;20212;-66
2022/10/07 01:18:57;;;;;;;4.05;2.95;;;;;20.40;101626.00;;;;2030095;29;20312;-66
2022/10/07 01:20:10;;;;;;;3.70;2.72;;;;;20.40;101622.00;;;;2045000;28;20242;-65
2022/10/07 01:21:19;;;;;;;3.10;2.22;;;;;20.40;101616.00;;;;2045594;28;20232;-65
2022/10/07 01:22:54;;;;;;;4.35;2.63;;;;;20.40;101140.00;;;;2051934;28;20596;-66
2022/10/07 01:24:03;;;;;;;4.07;2.40;;;;;20.50;101625.00;;;;2048403;28;20219;-66
2022/10/07 01:25:25;;;;;;;6.50;2.47;;;;;20.50;101624.00;;;;2051708;28;20228;-67
2022/10/07 01:26:28;;;;;;;7.53;2.45;;;;;20.60;101613.00;;;;2050499;28;20220;-70
2022/10/07 01:27:28;;;;;;;6.32;2.40;;;;;20.60;101621.00;;;;2051078;28;20211;-65
2022/10/07 01:28:46;;;;;;;9.57;2.50;;;;;20.70;101609.00;;;;2052994;28;20217;-66
2022/10/07 01:29:54;;;;;;;19.98;3.10;;;;;20.80;101550.00;;;;2045728;29;20226;-66
2022/10/07 01:30:57;;;;;;;5.72;2.60;;;;;20.80;101557.00;;;;2035656;29;20284;-66
2022/10/07 01:32:03;;;;;;;5.70;2.85;;;;;20.90;101566.00;;;;2050542;28;20591;-65
2022/10/07 01:33:04;;;;;;;5.32;2.60;;;;;20.80;101601.00;;;;2034859;29;20281;-66
2022/10/07 01:34:05;;;;;;;5.77;2.43;;;;;20.90;101602.00;;;;2050964;28;20653;-66
2022/10/07 01:35:08;;;;;;;6.68;2.30;;;;;20.90;101608.00;;;;2043034;29;20696;-66
2022/10/07 01:36:10;;;;;;;7.85;2.85;;;;;20.90;101552.00;;;;2050901;28;20211;-65
2022/10/07 01:37:12;;;;;;;8.25;2.75;;;;;20.90;101600.00;;;;2050961;28;20259;-65
2022/10/07 01:38:12;;;;;;;3.75;2.13;;;;;20.80;101542.00;;;;2051575;28;20340;-66
2022/10/07 01:39:13;;;;;;;3.70;2.33;;;;;20.80;101597.00;;;;2043583;29;20224;-65
2022/10/07 01:40:17;;;;;;;4.93;2.70;;;;;20.80;101592.00;;;;2035888;29;20236;-66
2022/10/07 01:41:19;;;;;;;4.65;2.70;;;;;20.80;101594.00;;;;2036658;28;20231;-66
2022/10/07 01:42:19;;;;;;;4.85;2.35;;;;;20.80;101554.00;;;;2050035;28;20226;-65
2022/10/07 01:43:20;;;;;;;3.83;2.20;;;;;20.90;101571.00;;;;2050984;28;20228;-66
2022/10/07 01:44:20;;;;;;;4.90;2.43;;;;;20.90;101596.00;;;;2050800;28;20484;-66
2022/10/07 01:45:21;;;;;;;7.60;2.80;;;;;20.90;101590.00;;;;2051008;28;20224;-65
2022/10/07 01:46:23;;;;;;;4.40;2.90;;;;;20.90;101591.00;;;;2051803;28;20271;-66
2022/10/07 01:47:27;;;;;;;8.13;2.55;;;;;20.90;101586.00;;;;2051113;28;20267;-64
2022/10/07 01:48:27;;;;;;;6.07;2.55;;;;;20.90;101580.00;;;;2051555;28;20207;-64
2022/10/07 01:49:28;;;;;;;6.93;2.10;;;;;20.90;101583.00;;;;2050891;28;20199;-66
2022/10/07 01:50:28;;;;;;;4.53;2.20;;;;;20.90;101579.00;;;;2051411;28;20278;-66
2022/10/07 01:51:29;;;;;;;5.80;2.10;;;;;20.90;101586.00;;;;2051536;28;20216;-65
2022/10/07 01:52:44;;;;;;;7.40;2.37;;;;;20.90;101577.00;;;;2051653;28;20580;-66
2022/10/07 01:54:01;;;;;;;3.72;2.30;;;;;20.80;101565.00;;;;2045844;29;20223;-65
2022/10/07 01:55:10;;;;;;;3.65;2.22;;;;;20.80;101574.00;;;;2038018;29;20251;-65
2022/10/07 01:56:39;;;;;;;4.35;2.30;;;;;20.80;101517.00;;;;2044830;28;20271;-65
2022/10/07 01:58:18;;;;;;;3.80;2.15;;;;;20.80;101569.00;;;;2050702;28;20309;-66
2022/10/07 01:59:25;;;;;;;3.13;2.30;;;;;20.80;101543.00;;;;2050726;28;20287;-65
2022/10/07 02:00:25;;;;;;;2.28;1.85;;;;;20.80;101571.00;;;;2050108;28;20303;-65
2022/10/07 02:01:38;;;;;;;3.03;2.00;;;;;20.80;101561.00;;;;2050859;28;20340;-65
2022/10/07 02:03:00;;;;;;;9.63;2.30;;;;;20.80;101540.00;;;;2051303;28;20215;-65
2022/10/07 02:04:24;;;;;;;3.75;2.20;;;;;20.70;101550.00;;;;2048646;28;20317;-66
2022/10/07 02:05:35;;;;;;;5.18;3.00;;;;;20.70;101562.00;;;;2050404;28;20670;-65
2022/10/07 02:06:47;;;;;;;3.28;2.13;;;;;20.70;101433.00;;;;2050766;28;20716;-64
2022/10/07 02:08:03;;;;;;;3.70;2.38;;;;;20.70;101557.00;;;;2045996;28;20226;-64
2022/10/07 02:09:09;;;;;;;3.10;2.35;;;;;20.70;101540.00;;;;2050268;28;20218;-65
2022/10/07 02:10:15;;;;;;;2.97;2.20;;;;;20.70;101562.00;;;;2050974;28;20208;-64
2022/10/07 02:11:17;;;;;;;2.50;1.98;;;;;20.70;101564.00;;;;2049481;28;20214;-64
2022/10/07 02:12:36;;;;;;;3.35;1.75;;;;;20.70;101534.00;;;;2050655;28;20278;-64
2022/10/07 02:14:00;;;;;;;3.35;1.80;;;;;20.70;101554.00;;;;2044745;29;20216;-64
2022/10/07 02:15:04;;;;;;;4.78;2.03;;;;;20.70;101527.00;;;;2047055;28;20224;-64
2022/10/07 02:16:14;;;;;;;3.70;2.17;;;;;20.70;101564.00;;;;2050380;28;20267;-65
2022/10/07 02:17:17;;;;;;;2.13;1.80;;;;;20.70;101558.00;;;;2050816;28;20212;-64
2022/10/07 02:18:17;;;;;;;4.78;2.50;;;;;20.70;101557.00;;;;2051465;28;20216;-64
2022/10/07 02:19:20;;;;;;;3.47;2.40;;;;;20.70;101542.00;;;;2051287;28;20388;-65
2022/10/07 02:20:24;;;;;;;4.43;3.45;;;;;20.70;101548.00;;;;2046844;28;20691;-64
2022/10/07 02:21:26;;;;;;;6.80;3.20;;;;;20.70;101556.00;;;;2046602;29;20213;-65
2022/10/07 02:22:27;;;;;;;4.97;3.63;;;;;20.70;101551.00;;;;2050397;28;20215;-64
2022/10/07 02:23:28;;;;;;;5.00;4.10;;;;;20.70;101554.00;;;;2050690;28;20291;-64
2022/10/07 02:24:31;;;;;;;6.88;4.80;;;;;20.70;101543.00;;;;2050612;28;20845;-64
2022/10/07 02:25:35;;;;;;;6.88;4.88;;;;;20.60;101546.00;;;;2051034;28;20257;-64
2022/10/07 02:26:35;;;;;;;8.50;5.78;;;;;20.60;101553.00;;;;2051310;28;20220;-64
2022/10/07 02:27:36;;;;;;;10.67;6.87;;;;;20.60;101538.00;;;;2051136;28;20688;-64
2022/10/07 02:28:36;;;;;;;10.40;7.70;;;;;20.60;101539.00;;;;2050967;28;20708;-65
2022/10/07 02:29:37;;;;;;;10.40;7.40;;;;;20.60;101509.00;;;;2050490;28;20219;-65
2022/10/07 02:30:37;;;;;;;8.83;7.93;;;;;20.60;101537.00;;;;2042493;29;20224;-64
2022/10/07 02:31:40;;;;;;;11.17;8.87;;;;;20.60;101536.00;;;;2037643;29;20219;-64
2022/10/07 02:32:43;;;;;;;11.65;9.07;;;;;20.60;101547.00;;;;2042539;29;20205;-64
2022/10/07 02:33:45;;;;;;;14.05;10.82;;;;;20.60;101544.00;;;;2028599;29;20329;-64
2022/10/07 02:34:47;;;;;;;14.60;9.95;;;;;20.60;101537.00;;;;2036078;29;20240;-64
2022/10/07 02:35:53;;;;;;;16.80;11.35;;;;;20.60;101537.00;;;;2035515;29;20220;-64
2022/10/07 02:36:56;;;;;;;16.85;13.05;;;;;20.60;101542.00;;;;2028370;29;20273;-63
2022/10/07 02:37:57;;;;;;;14.63;12.07;;;;;20.60;101524.00;;;;2035388;29;20278;-64
2022/10/07 02:38:59;;;;;;;18.05;13.00;;;;;20.60;101541.00;;;;2043164;28;20217;-64
2022/10/07 02:39:59;;;;;;;18.23;13.00;;;;;20.50;101536.00;;;;2050993;28;20756;-64
2022/10/07 02:41:32;;;;;;;17.87;13.50;;;;;20.60;101519.00;;;;2043534;28;20225;-64
2022/10/07 02:42:40;;;;;;;19.35;13.27;;;;;20.60;101529.00;;;;2052977;28;20597;-65
2022/10/07 02:43:55;;;;;;;16.02;12.40;;;;;20.60;101531.00;;;;2050320;28;20647;-65
2022/10/07 02:45:12;;;;;;;18.80;13.00;;;;;20.60;101525.00;;;;2050253;28;20222;-65
2022/10/07 02:46:16;;;;;;;16.15;12.43;;;;;20.60;101530.00;;;;2052896;28;20218;-64
2022/10/07 02:47:22;;;;;;;14.40;12.25;;;;;20.60;101531.00;;;;2054771;28;20211;-64
2022/10/07 02:48:25;;;;;;;19.60;12.90;;;;;20.60;101507.00;;;;2051118;28;21284;-64
2022/10/07 02:49:25;;;;;;;14.90;11.55;;;;;20.60;101529.00;;;;2052986;28;20675;-64
2022/10/07 02:50:27;;;;;;;15.43;12.13;;;;;20.60;101521.00;;;;2030852;29;20233;-65
2022/10/07 02:51:32;;;;;;;17.65;12.15;;;;;20.60;101494.00;;;;2045434;29;20232;-64
2022/10/07 02:52:33;;;;;;;17.70;12.82;;;;;20.50;101504.00;;;;2052769;28;20302;-66
2022/10/07 02:53:33;;;;;;;15.13;11.93;;;;;20.50;101524.00;;;;2052309;28;20219;-66
2022/10/07 02:54:38;;;;;;;15.10;11.23;;;;;20.50;101497.00;;;;2043287;28;20936;-65
2022/10/07 02:55:38;;;;;;;15.98;12.10;;;;;20.50;101518.00;;;;2043097;29;20321;-64
2022/10/07 02:56:38;;;;;;;16.27;11.80;;;;;20.50;101521.00;;;;2050380;28;20216;-64
2022/10/07 02:57:40;;;;;;;15.50;10.87;;;;;20.50;101520.00;;;;2051126;28;20248;-64
2022/10/07 02:58:44;;;;;;;16.45;10.52;;;;;20.50;101483.00;;;;2050147;28;20239;-65
2022/10/07 02:59:45;;;;;;;13.45;10.27;;;;;20.60;101519.00;;;;2053280;28;20222;-64
2022/10/07 03:00:46;;;;;;;13.60;10.80;;;;;20.60;101508.00;;;;2049712;28;20203;-64
2022/10/07 03:01:47;;;;;;;15.57;11.30;;;;;20.50;101506.00;;;;2034556;29;20682;-64
2022/10/07 03:02:52;;;;;;;14.68;10.60;;;;;20.50;101476.00;;;;2038947;28;20282;-65
2022/10/07 03:03:54;;;;;;;14.93;10.00;;;;;20.50;101482.00;;;;2043222;29;20267;-64
2022/10/07 03:04:57;;;;;;;15.20;11.18;;;;;20.50;101506.00;;;;2036223;29;20313;-64
2022/10/07 03:05:58;;;;;;;17.08;12.40;;;;;20.50;101509.00;;;;2043395;28;20730;-64
2022/10/07 03:07:00;;;;;;;13.17;10.33;;;;;20.50;101506.00;;;;2051777;28;20231;-65
2022/10/07 03:08:01;;;;;;;17.38;12.40;;;;;20.50;101505.00;;;;2051798;28;20235;-65
2022/10/07 03:09:02;;;;;;;17.70;13.10;;;;;20.50;101497.00;;;;2050604;28;20258;-65
2022/10/07 03:10:03;;;;;;;15.57;13.18;;;;;20.50;101496.00;;;;2050169;28;20223;-65
2022/10/07 03:11:04;;;;;;;18.90;14.35;;;;;20.50;101496.00;;;;2042442;29;20228;-65
2022/10/07 03:12:04;;;;;;;20.37;14.97;;;;;20.50;101494.00;;;;2042162;29;20220;-64
2022/10/07 03:13:04;;;;;;;23.60;15.10;;;;;20.50;101490.00;;;;2050808;28;20224;-64
2022/10/07 03:14:05;;;;;;;20.60;16.20;;;;;20.50;101497.00;;;;2051359;28;20243;-65
2022/10/07 03:15:05;;;;;;;23.40;17.37;;;;;20.50;101492.00;;;;2051814;28;20630;-64
2022/10/07 03:16:06;;;;;;;23.93;16.90;;;;;20.50;101495.00;;;;2051853;28;20767;-65
2022/10/07 03:17:06;;;;;;;25.70;18.40;;;;;20.50;101493.00;;;;2051068;28;20635;-65
2022/10/07 03:18:24;;;;;;;27.00;18.10;;;;;20.50;101497.00;;;;2049806;28;20612;-66
2022/10/07 03:19:25;;;;;;;25.23;17.70;;;;;20.50;101491.00;;;;2054160;28;20199;-65
2022/10/07 03:20:27;;;;;;;24.75;18.17;;;;;20.50;101491.00;;;;2050939;28;20699;-65
2022/10/07 03:21:28;;;;;;;26.58;19.23;;;;;20.50;101489.00;;;;2050977;28;20226;-65
2022/10/07 03:22:28;;;;;;;26.90;19.53;;;;;20.50;101491.00;;;;2050671;28;20579;-64
2022/10/07 03:23:28;;;;;;;27.47;18.97;;;;;20.50;101464.00;;;;2050605;28;20226;-64
2022/10/07 03:24:30;;;;;;;28.50;19.90;;;;;20.50;101487.00;;;;2050956;28;20212;-64
2022/10/07 03:25:30;;;;;;;26.20;19.00;;;;;20.50;101493.00;;;;2050739;28;20215;-64
2022/10/07 03:26:31;;;;;;;25.80;18.50;;;;;20.50;101475.00;;;;2050904;28;20692;-65
2022/10/07 03:27:31;;;;;;;26.10;19.50;;;;;20.50;101478.00;;;;2050931;28;20223;-64
2022/10/07 03:28:34;;;;;;;24.50;19.73;;;;;20.50;101478.00;;;;2050443;28;20270;-64
2022/10/07 03:29:34;;;;;;;26.70;18.38;;;;;20.50;101481.00;;;;2050878;28;20226;-71
2022/10/07 03:30:34;;;;;;;24.03;18.73;;;;;20.50;101462.00;;;;2049992;28;20234;-65
2022/10/07 03:31:35;;;;;;;27.00;18.80;;;;;20.50;101464.00;;;;2050145;28;20220;-64
2022/10/07 03:32:37;;;;;;;26.60;18.03;;;;;20.50;101482.00;;;;2037218;28;20224;-64
2022/10/07 03:33:37;;;;;;;24.42;17.45;;;;;20.40;101479.00;;;;2042345;29;20649;-64
2022/10/07 03:34:37;;;;;;;25.73;19.20;;;;;20.50;101462.00;;;;2050314;28;20231;-64
2022/10/07 03:35:38;;;;;;;26.10;17.60;;;;;20.40;101471.00;;;;2050957;28;20294;-64
2022/10/07 03:36:38;;;;;;;25.40;17.93;;;;;20.50;101475.00;;;;2050947;28;20208;-64
2022/10/07 03:37:38;;;;;;;23.30;17.30;;;;;20.40;101470.00;;;;2050905;28;20211;-64
2022/10/07 03:38:39;;;;;;;26.17;16.93;;;;;20.40;101475.00;;;;2050794;28;20239;-64
2022/10/07 03:39:39;;;;;;;21.90;16.03;;;;;20.50;101473.00;;;;2054164;28;20211;-64
2022/10/07 03:40:42;;;;;;;22.40;17.57;;;;;20.40;101472.00;;;;2050393;28;20239;-66
2022/10/07 03:41:42;;;;;;;25.90;17.33;;;;;20.40;101478.00;;;;2042079;29;20216;-64
2022/10/07 03:42:42;;;;;;;21.20;15.40;;;;;20.50;101474.00;;;;2041975;29;20224;-64
2022/10/07 03:43:43;;;;;;;23.77;17.20;;;;;20.40;101474.00;;;;2050456;28;20251;-64
2022/10/07 03:44:44;;;;;;;22.20;14.83;;;;;20.40;101473.00;;;;2051576;28;20212;-64
2022/10/07 03:45:48;;;;;;;24.25;16.73;;;;;20.40;101473.00;;;;2051618;28;20216;-64
2022/10/07 03:46:49;;;;;;;20.63;15.57;;;;;20.40;101475.00;;;;2051033;28;20211;-64
2022/10/07 03:47:49;;;;;;;20.13;14.52;;;;;20.50;101470.00;;;;2050774;28;20211;-64
2022/10/07 03:48:51;;;;;;;22.73;15.27;;;;;20.50;101432.00;;;;2050898;28;20222;-64
2022/10/07 03:49:52;;;;;;;21.92;14.63;;;;;20.40;101474.00;;;;2050434;28;20809;-64
2022/10/07 03:50:52;;;;;;;21.70;14.50;;;;;20.40;101473.00;;;;2050756;28;20208;-64
2022/10/07 03:51:52;;;;;;;20.00;13.97;;;;;20.40;101475.00;;;;2049801;28;20211;-65
2022/10/07 03:52:53;;;;;;;18.60;13.63;;;;;20.40;101483.00;;;;2049869;28;20215;-64
2022/10/07 03:53:56;;;;;;;20.90;14.20;;;;;20.40;101480.00;;;;2052591;28;20226;-64
2022/10/07 03:54:56;;;;;;;19.23;12.75;;;;;20.40;101484.00;;;;2050850;28;20296;-64
2022/10/07 03:55:56;;;;;;;18.33;13.53;;;;;20.40;101472.00;;;;2051361;28;20231;-64
2022/10/07 03:56:57;;;;;;;17.43;12.50;;;;;20.50;101469.00;;;;2051733;28;20330;-64
2022/10/07 03:57:57;;;;;;;18.63;12.60;;;;;20.40;101475.00;;;;2051622;28;20216;-65
2022/10/07 03:58:58;;;;;;;17.60;12.77;;;;;20.40;101476.00;;;;2051728;28;20380;-64
2022/10/07 03:59:58;;;;;;;19.63;13.05;;;;;20.40;101474.00;;;;2051200;28;20243;-65
2022/10/07 04:01:09;;;;;;;16.00;12.03;;;;;20.40;101473.00;;;;2050986;28;20990;-64
2022/10/07 04:02:09;;;;;;;15.48;12.10;;;;;20.40;101473.00;;;;2050624;28;20299;-64
2022/10/07 04:03:10;;;;;;;16.47;11.13;;;;;20.40;101441.00;;;;2051110;28;20216;-65
2022/10/07 04:04:10;;;;;;;14.43;11.17;;;;;20.40;101472.00;;;;2051475;28;20298;-65
2022/10/07 04:05:11;;;;;;;16.40;11.77;;;;;20.40;101472.00;;;;2051142;28;20639;-64
2022/10/07 04:06:11;;;;;;;17.00;11.57;;;;;20.40;101452.00;;;;2051692;28;20226;-64
2022/10/07 04:07:11;;;;;;;15.10;11.40;;;;;20.40;101467.00;;;;2051442;28;20431;-64
2022/10/07 04:08:14;;;;;;;16.73;11.97;;;;;20.40;101471.00;;;;2050864;28;20262;-65
2022/10/07 04:09:15;;;;;;;16.15;11.23;;;;;20.40;101467.00;;;;2050432;28;20672;-64
2022/10/07 04:10:16;;;;;;;13.13;10.00;;;;;20.40;101473.00;;;;2050873;28;20275;-64
2022/10/07 04:11:17;;;;;;;16.20;11.02;;;;;20.40;101467.00;;;;2051542;28;20216;-64
2022/10/07 04:12:17;;;;;;;16.48;10.38;;;;;20.40;101465.00;;;;2051497;28;20215;-64
2022/10/07 04:13:17;;;;;;;15.03;10.87;;;;;20.40;101463.00;;;;2051730;28;20662;-65
2022/10/07 04:14:18;;;;;;;13.53;10.20;;;;;20.40;101462.00;;;;2051512;28;20814;-65
2022/10/07 04:15:18;;;;;;;13.23;10.83;;;;;20.40;101467.00;;;;2051154;28;20718;-64
2022/10/07 04:16:19;;;;;;;14.70;9.70;;;;;20.30;101478.00;;;;2050353;28;20707;-65
2022/10/07 04:17:19;;;;;;;14.90;9.97;;;;;20.30;101465.00;;;;2050261;28;20214;-65
2022/10/07 04:18:20;;;;;;;12.43;9.50;;;;;20.30;101465.00;;;;2051846;28;20575;-63
2022/10/07 04:19:20;;;;;;;12.43;9.85;;;;;20.30;101465.00;;;;2051617;28;20750;-64
2022/10/07 04:20:21;;;;;;;15.30;9.23;;;;;20.00;101469.00;;;;2053976;28;20215;-64
2022/10/07 04:21:22;;;;;;;12.33;9.57;;;;;20.40;101466.00;;;;2052447;28;20212;-63
2022/10/07 04:22:22;;;;;;;12.50;9.20;;;;;20.40;101460.00;;;;2051713;28;20315;-65
2022/10/07 04:23:23;;;;;;;15.00;9.83;;;;;20.40;101456.00;;;;2052199;28;20459;-65
2022/10/07 04:24:23;;;;;;;14.63;9.63;;;;;20.40;101456.00;;;;2053587;28;20448;-64
2022/10/07 04:25:32;;;;;;;14.37;9.17;;;;;20.40;101454.00;;;;2053689;28;20237;-64
2022/10/07 04:26:33;;;;;;;11.63;8.15;;;;;20.30;101447.00;;;;2053074;28;20781;-64
2022/10/07 04:27:34;;;;;;;13.10;8.50;;;;;20.40;101447.00;;;;2051596;28;20246;-64
2022/10/07 04:28:34;;;;;;;12.73;8.60;;;;;20.40;101455.00;;;;2051671;28;20796;-64
2022/10/07 04:29:34;;;;;;;12.50;8.40;;;;;20.30;101459.00;;;;2051084;28;20676;-64
2022/10/07 04:30:38;;;;;;;11.17;8.40;;;;;20.40;101448.00;;;;2051288;28;20216;-64
2022/10/07 04:31:38;;;;;;;12.88;8.48;;;;;20.40;101413.00;;;;2052503;28;20244;-64
2022/10/07 04:32:39;;;;;;;10.47;8.17;;;;;20.40;101454.00;;;;2051679;28;20235;-64
2022/10/07 04:33:39;;;;;;;11.63;8.60;;;;;20.00;101453.00;;;;2052096;28;20242;-65
2022/10/07 04:34:40;;;;;;;14.00;8.83;;;;;20.30;101453.00;;;;2051801;28;20219;-63
2022/10/07 04:35:40;;;;;;;11.80;8.00;;;;;20.30;101452.00;;;;2051834;28;20250;-64
2022/10/07 04:36:41;;;;;;;12.33;8.23;;;;;20.40;101452.00;;;;2052487;28;20228;-63
2022/10/07 04:37:42;;;;;;;12.20;8.20;;;;;20.30;101448.00;;;;2052533;28;20759;-64
2022/10/07 04:38:44;;;;;;;10.02;7.10;;;;;20.30;101445.00;;;;2052615;28;20216;-64
2022/10/07 04:39:44;;;;;;;9.65;7.80;;;;;20.30;101436.00;;;;2052848;28;20239;-64
2022/10/07 04:40:47;;;;;;;10.50;7.50;;;;;20.30;101441.00;;;;2052884;28;20227;-64
2022/10/07 04:41:47;;;;;;;9.70;7.43;;;;;20.30;101451.00;;;;2052745;28;20222;-64
2022/10/07 04:44:07;;;;;;;14.35;7.80;;;;;20.30;101446.00;;;;2052354;28;20212;-64
2022/10/07 04:45:07;;;;;;;9.00;7.10;;;;;20.30;101444.00;;;;2052419;28;20212;-64
2022/10/07 04:46:12;;;;;;;9.13;6.80;;;;;20.30;101447.00;;;;2052873;28;20216;-64
2022/10/07 04:47:12;;;;;;;10.50;7.00;;;;;20.30;101447.00;;;;2052793;28;20290;-64
2022/10/07 04:48:13;;;;;;;8.77;6.90;;;;;20.30;101412.00;;;;2052170;28;20667;-64
2022/10/07 04:49:13;;;;;;;10.47;7.30;;;;;20.30;101450.00;;;;2054013;28;20692;-64
2022/10/07 04:50:14;;;;;;;9.30;7.10;;;;;20.30;101446.00;;;;2052535;28;20220;-64
2022/10/07 04:51:14;;;;;;;12.00;7.40;;;;;20.30;101448.00;;;;2052009;28;20317;-64
2022/10/07 04:52:15;;;;;;;10.20;7.20;;;;;20.30;101449.00;;;;2052040;28;20270;-64
2022/10/07 04:53:15;;;;;;;8.37;6.73;;;;;20.30;101434.00;;;;2052680;28;20301;-64
2022/10/07 04:54:15;;;;;;;8.67;6.43;;;;;20.30;101443.00;;;;2051516;28;20220;-64
2022/10/07 04:55:16;;;;;;;10.30;6.60;;;;;20.30;101444.00;;;;2051939;28;20216;-65
2022/10/07 04:56:16;;;;;;;8.70;6.40;;;;;20.30;101443.00;;;;2052372;28;20279;-64
2022/10/07 04:57:16;;;;;;;8.83;6.03;;;;;20.30;101432.00;;;;2055304;28;20255;-65
2022/10/07 04:58:17;;;;;;;9.13;6.30;;;;;20.30;101434.00;;;;2052709;28;20223;-64
2022/10/07 04:59:19;;;;;;;9.50;6.40;;;;;20.30;101439.00;;;;2052735;28;20219;-65
2022/10/07 05:00:19;;;;;;;9.23;6.63;;;;;20.30;101429.00;;;;2052152;28;21148;-64
2022/10/07 05:01:19;;;;;;;9.10;6.30;;;;;20.30;101430.00;;;;2051781;28;20287;-64
2022/10/07 05:02:19;;;;;;;7.83;6.00;;;;;20.30;101441.00;;;;2051672;28;20224;-64
2022/10/07 05:03:21;;;;;;;8.60;6.07;;;;;20.30;101432.00;;;;2042048;28;20247;-64
2022/10/07 05:04:22;;;;;;;8.68;6.40;;;;;20.30;101429.00;;;;2051234;28;20307;-65
2022/10/07 05:05:23;;;;;;;8.00;5.30;;;;;20.30;101440.00;;;;2052455;28;20228;-65
2022/10/07 05:06:24;;;;;;;10.98;6.13;;;;;20.30;101430.00;;;;2053834;28;20699;-65
2022/10/07 05:07:24;;;;;;;8.17;5.83;;;;;20.20;101432.00;;;;2051736;28;20220;-65
2022/10/07 05:08:25;;;;;;;7.33;5.97;;;;;20.30;101423.00;;;;2052117;28;20286;-65
2022/10/07 05:09:26;;;;;;;8.60;6.20;;;;;20.30;101424.00;;;;2052567;28;20708;-65
2022/10/07 05:10:26;;;;;;;5.53;4.77;;;;;20.30;101422.00;;;;2048375;28;20703;-65